Time;durP1;ratioP1;P1;durP2;ratioP2;P2;SDS_P1;SDS_P2;PMS_P1;PMS_P2;Temp;Humidity;BMP_temperature;BMP_pressure;BME280_temperature;BME280_humidity;BME280_pressure;Samples;Min_cycle;Max_cycle;Signal;HPM_P1;HPM_P2
2021/11/09 00:00:55;;;;;;;16.93;12.80;;;2.90;99.90;;;;;;6147949;23;20619;-91
2021/11/09 00:03:22;;;;;;;13.83;12.43;;;2.90;99.90;;;;;;6150919;23;20834;-91
2021/11/09 00:05:52;;;;;;;14.97;13.50;;;2.50;99.90;;;;;;6149353;23;20594;-92
2021/11/09 00:08:24;;;;;;;16.83;13.07;;;2.90;99.90;;;;;;6157698;23;20583;-91
2021/11/09 00:10:51;;;;;;;17.43;13.47;;;2.90;99.90;;;;;;6150448;23;21200;-90
2021/11/09 00:13:20;;;;;;;18.90;13.17;;;2.90;99.90;;;;;;6149192;23;20762;-91
2021/11/09 00:15:49;;;;;;;20.00;14.40;;;3.00;99.90;;;;;;6153844;23;20687;-91
2021/11/09 00:18:16;;;;;;;16.40;12.20;;;2.90;99.90;;;;;;6151147;23;21210;-91
2021/11/09 00:20:44;;;;;;;17.30;12.20;;;4.60;99.90;;;;;;6150038;23;20641;-91
2021/11/09 00:23:12;;;;;;;13.63;12.10;;;3.20;99.90;;;;;;6147247;23;20595;-91
2021/11/09 00:25:41;;;;;;;18.00;14.90;;;4.40;99.90;;;;;;6149501;23;20588;-92
2021/11/09 00:28:13;;;;;;;15.80;14.17;;;2.80;99.90;;;;;;6148184;23;20603;-90
2021/11/09 00:30:41;;;;;;;15.10;13.60;;;2.70;99.90;;;;;;6147439;23;20610;-91
2021/11/09 00:33:09;;;;;;;16.10;13.77;;;2.70;99.90;;;;;;6149862;23;20580;-91
2021/11/09 00:35:37;;;;;;;15.20;12.40;;;2.60;99.90;;;;;;6149020;23;20608;-91
2021/11/09 00:38:07;;;;;;;13.73;12.30;;;2.50;99.90;;;;;;6149825;23;20618;-94
2021/11/09 00:40:36;;;;;;;13.50;11.00;;;2.50;99.90;;;;;;6153311;23;20591;-94
2021/11/09 00:43:04;;;;;;;13.70;12.00;;;2.50;99.90;;;;;;6152057;23;20701;-94
2021/11/09 00:45:33;;;;;;;15.80;11.90;;;2.40;99.90;;;;;;6151497;23;20604;-95
2021/11/09 00:48:00;;;;;;;13.30;12.00;;;4.10;99.90;;;;;;6151159;23;20934;-93
2021/11/09 00:50:30;;;;;;;14.13;12.63;;;2.50;99.90;;;;;;6151488;23;20637;-94
2021/11/09 00:52:58;;;;;;;18.63;12.10;;;2.50;99.90;;;;;;6149997;23;20613;-92
2021/11/09 00:55:25;;;;;;;15.03;12.77;;;2.50;99.90;;;;;;6150626;23;20614;-94
2021/11/09 00:57:53;;;;;;;13.13;11.50;;;2.50;99.90;;;;;;6150838;23;20600;-94
2021/11/09 01:00:24;;;;;;;13.67;12.37;;;2.20;99.90;;;;;;6152121;23;20614;-93
2021/11/09 01:02:51;;;;;;;15.00;11.70;;;2.40;99.90;;;;;;6151510;23;20617;-94
2021/11/09 01:05:23;;;;;;;14.23;11.03;;;2.30;99.90;;;;;;6152194;23;20547;-94
2021/11/09 01:07:54;;;;;;;12.50;10.80;;;2.40;99.90;;;;;;6151499;23;20554;-94
2021/11/09 01:10:23;;;;;;;13.13;12.00;;;2.40;99.90;;;;;;6151656;23;20941;-95
2021/11/09 01:12:50;;;;;;;13.63;10.53;;;2.50;99.90;;;;;;6151875;23;20610;-94
2021/11/09 01:15:20;;;;;;;13.63;10.50;;;4.40;99.90;;;;;;6149612;23;21042;-94
2021/11/09 01:17:47;;;;;;;10.37;9.47;;;3.50;99.90;;;;;;6150540;23;20591;-93
2021/11/09 01:20:18;;;;;;;14.43;11.87;;;3.60;99.90;;;;;;6151502;23;20648;-93
2021/11/09 01:22:50;;;;;;;14.27;12.30;;;2.70;99.90;;;;;;6150605;23;20599;-93
2021/11/09 01:25:19;;;;;;;14.00;12.63;;;2.80;99.90;;;;;;6150147;23;20612;-93
2021/11/09 01:27:46;;;;;;;16.70;11.07;;;2.80;99.90;;;;;;6150446;23;20684;-93
2021/11/09 01:30:15;;;;;;;13.70;11.20;;;2.70;99.90;;;;;;6147687;23;20617;-93
2021/11/09 01:32:42;;;;;;;13.00;11.50;;;3.90;99.90;;;;;;6150803;23;20658;-93
2021/11/09 01:35:10;;;;;;;13.73;12.33;;;3.10;99.90;;;;;;6149975;23;20605;-92
2021/11/09 01:37:38;;;;;;;11.20;10.00;;;2.90;99.90;;;;;;6149694;23;20594;-93
2021/11/09 01:40:07;;;;;;;22.07;10.90;;;2.90;99.90;;;;;;6150067;23;20697;-93
2021/11/09 01:42:35;;;;;;;18.80;12.00;;;2.90;99.90;;;;;;6152495;23;20650;-93
2021/11/09 01:45:04;;;;;;;15.47;11.83;;;3.00;99.90;;;;;;6151239;23;20632;-93
2021/11/09 01:47:30;;;;;;;18.93;11.33;;;3.00;99.90;;;;;;6151464;23;20595;-93
2021/11/09 01:49:57;;;;;;;11.70;10.57;;;4.70;99.90;;;;;;6152292;23;20652;-93
2021/11/09 01:52:25;;;;;;;13.00;11.60;;;2.70;99.90;;;;;;6152174;23;20823;-92
2021/11/09 01:54:52;;;;;;;15.10;11.27;;;3.00;99.90;;;;;;6150317;23;21139;-93
2021/11/09 01:57:19;;;;;;;14.73;11.47;;;2.80;99.90;;;;;;6152025;23;20578;-92
2021/11/09 01:59:48;;;;;;;15.80;13.37;;;3.60;99.90;;;;;;6152272;23;20617;-93
2021/11/09 02:02:15;;;;;;;16.10;12.50;;;2.90;99.90;;;;;;6154026;23;20909;-93
2021/11/09 02:04:43;;;;;;;16.30;14.33;;;3.00;99.90;;;;;;6151846;23;20596;-92
2021/11/09 02:07:09;;;;;;;17.90;15.07;;;3.00;99.90;;;;;;6151616;23;20611;-93
2021/11/09 02:09:36;;;;;;;18.00;13.50;;;3.00;99.90;;;;;;6152010;23;20623;-93
2021/11/09 02:12:03;;;;;;;15.83;13.80;;;3.10;99.90;;;;;;6152236;23;20599;-93
2021/11/09 02:14:30;;;;;;;16.50;13.73;;;3.10;99.90;;;;;;6152071;23;20587;-94
2021/11/09 02:16:59;;;;;;;19.10;15.60;;;3.10;99.90;;;;;;6151227;23;20926;-93
2021/11/09 02:19:25;;;;;;;17.50;15.67;;;3.10;99.90;;;;;;6153064;23;20591;-93
2021/11/09 02:21:54;;;;;;;15.63;14.13;;;3.10;99.90;;;;;;6152377;23;20687;-95
2021/11/09 02:24:21;;;;;;;16.83;14.17;;;4.80;99.90;;;;;;6151278;23;20645;-92
2021/11/09 02:26:48;;;;;;;20.10;15.20;;;3.10;99.90;;;;;;6150773;23;20568;-93
2021/11/09 02:29:15;;;;;;;16.23;14.00;;;3.10;99.90;;;;;;6152240;23;20597;-94
2021/11/09 02:31:42;;;;;;;18.80;14.80;;;3.10;99.90;;;;;;6152017;23;20587;-93
2021/11/09 02:34:09;;;;;;;22.67;16.20;;;3.20;99.90;;;;;;6150319;23;20576;-93
2021/11/09 02:36:35;;;;;;;16.50;14.87;;;3.40;99.90;;;;;;6150340;23;20970;-93
2021/11/09 02:39:04;;;;;;;21.17;16.40;;;4.40;99.90;;;;;;6150640;23;20622;-93
2021/11/09 02:41:31;;;;;;;15.77;14.03;;;3.90;99.90;;;;;;6152388;23;20616;-93
2021/11/09 02:43:59;;;;;;;18.53;16.63;;;3.30;99.90;;;;;;6151670;23;20931;-93
2021/11/09 02:46:35;;;;;;;20.80;14.90;;;3.40;99.90;;;;;;6149754;23;20950;-92
2021/11/09 02:49:09;;;;;;;22.33;15.93;;;3.40;99.90;;;;;;6151150;23;20610;-93
2021/11/09 02:51:39;;;;;;;18.77;16.90;;;3.40;99.90;;;;;;6151893;23;20580;-93
2021/11/09 02:54:11;;;;;;;18.17;16.13;;;3.30;99.90;;;;;;6156552;23;20580;-94
2021/11/09 02:56:46;;;;;;;19.10;17.10;;;3.30;99.90;;;;;;6153949;23;20624;-93
2021/11/09 02:59:25;;;;;;;19.17;17.37;;;3.40;99.90;;;;;;6152381;23;20556;-94
2021/11/09 03:01:56;;;;;;;17.50;15.73;;;3.40;99.90;;;;;;6152740;23;20614;-93
2021/11/09 03:04:34;;;;;;;18.87;16.10;;;5.20;99.90;;;;;;6153578;23;20566;-94
2021/11/09 03:10:49;;;;;;;22.53;15.43;;;3.70;99.90;;;;;;6175552;23;20598;-96
2021/11/09 03:13:48;;;;;;;16.70;14.97;;;3.40;99.90;;;;;;6177826;23;20595;-96
2021/11/09 03:16:18;;;;;;;20.27;14.80;;;4.40;99.90;;;;;;6176154;23;20612;-96
2021/11/09 03:18:50;;;;;;;18.10;15.20;;;3.20;99.90;;;;;;6164541;23;20595;-96
2021/11/09 03:40:49;;;;;;;20.13;18.30;;;3.00;99.90;;;;;;6086688;23;21210;-95
2021/11/09 03:46:01;;;;;;;20.53;18.33;;;2.30;99.90;;;;;;6157577;23;20517;-96
2021/11/09 03:48:29;;;;;;;23.07;20.93;;;2.50;99.90;;;;;;6157356;23;20578;-96
2021/11/09 03:51:00;;;;;;;24.10;18.30;;;2.90;99.90;;;;;;6156462;23;20604;-95
2021/11/09 03:53:29;;;;;;;19.50;17.47;;;2.10;99.90;;;;;;6154353;23;20633;-95
2021/11/09 03:56:18;;;;;;;22.80;17.70;;;1.90;99.90;;;;;;6154016;23;20636;-95
2021/11/09 03:58:49;;;;;;;20.30;18.03;;;1.90;99.90;;;;;;6154706;23;20582;-94
2021/11/09 04:01:19;;;;;;;19.67;17.47;;;2.40;99.90;;;;;;6156809;23;21142;-95
2021/11/09 04:04:00;;;;;;;21.03;18.83;;;2.00;99.90;;;;;;6154822;23;20954;-93
2021/11/09 04:06:33;;;;;;;18.90;16.80;;;1.60;99.90;;;;;;6152849;23;20573;-93
2021/11/09 04:09:06;;;;;;;21.00;18.73;;;1.90;99.90;;;;;;6150578;23;20591;-92
2021/11/09 04:11:41;;;;;;;19.40;16.57;;;2.00;99.90;;;;;;6150964;23;20629;-93
2021/11/09 04:14:17;;;;;;;19.37;16.73;;;2.00;99.90;;;;;;6151131;23;20561;-93
2021/11/09 04:16:50;;;;;;;19.43;17.23;;;1.80;99.90;;;;;;6150605;23;20625;-93
2021/11/09 04:19:24;;;;;;;17.67;15.83;;;1.80;99.90;;;;;;6151059;23;20595;-93
2021/11/09 04:30:21;;;;;;;17.80;16.30;;;3.20;99.90;;;;;;6149750;23;20597;-94
2021/11/09 05:01:20;;;;;;;16.63;14.87;;;1.30;99.90;;;;;;6149719;23;20640;-91
2021/11/09 05:09:20;;;;;;;18.33;15.83;;;1.40;99.90;;;;;;6149320;23;21006;-92
2021/11/09 05:11:47;;;;;;;18.50;16.50;;;1.40;99.90;;;;;;6156927;23;20601;-91
2021/11/09 05:14:15;;;;;;;19.40;17.27;;;1.40;99.90;;;;;;6172210;23;20659;-92
2021/11/09 05:16:42;;;;;;;19.20;16.37;;;1.40;99.90;;;;;;6153706;23;20628;-92
2021/11/09 05:19:15;;;;;;;15.97;14.37;;;1.20;99.90;;;;;;6156498;23;20855;-92
2021/11/09 05:21:42;;;;;;;17.87;16.00;;;1.20;99.90;;;;;;6154970;23;20576;-91
2021/11/09 05:24:10;;;;;;;19.67;15.23;;;1.20;99.90;;;;;;6156266;23;20584;-92
2021/11/09 05:26:42;;;;;;;17.40;14.80;;;1.00;99.90;;;;;;6156163;23;20560;-92
2021/11/09 05:29:10;;;;;;;17.77;14.83;;;1.20;99.90;;;;;;6153774;23;20584;-92
2021/11/09 05:31:37;;;;;;;16.23;14.77;;;1.10;99.90;;;;;;6154944;23;20685;-91
2021/11/09 05:34:05;;;;;;;22.00;15.77;;;2.90;99.90;;;;;;6156751;23;20712;-91
2021/11/09 05:36:35;;;;;;;18.20;15.27;;;1.10;99.90;;;;;;6151608;23;20616;-91
2021/11/09 05:39:09;;;;;;;19.33;15.07;;;1.20;99.90;;;;;;6153044;23;20611;-91
2021/11/09 05:41:38;;;;;;;20.20;14.20;;;1.20;99.90;;;;;;6160287;23;21115;-92
2021/11/09 05:44:07;;;;;;;19.40;17.40;;;1.00;99.90;;;;;;6152563;23;20557;-91
2021/11/09 05:46:34;;;;;;;20.90;18.83;;;1.00;99.90;;;;;;6153787;23;20593;-92
2021/11/09 05:49:01;;;;;;;20.33;18.27;;;1.10;99.90;;;;;;6153911;23;20588;-91
2021/11/09 05:51:29;;;;;;;17.60;15.10;;;1.00;99.90;;;;;;6159984;23;20645;-91
2021/11/09 05:53:58;;;;;;;18.43;15.27;;;1.90;99.90;;;;;;6155679;23;21195;-92
2021/11/09 05:56:25;;;;;;;22.70;18.07;;;1.20;99.90;;;;;;6153482;23;20662;-91
2021/11/09 05:58:52;;;;;;;17.53;15.27;;;1.00;99.90;;;;;;6152890;23;20594;-92
2021/11/09 06:01:19;;;;;;;16.83;15.07;;;0.80;99.90;;;;;;6153375;23;20620;-92
2021/11/09 06:06:29;;;;;;;18.50;15.10;;;0.90;99.90;;;;;;6170657;23;20552;-91
2021/11/09 06:08:57;;;;;;;16.90;14.70;;;0.90;99.90;;;;;;6155623;23;20628;-92
2021/11/09 06:11:24;;;;;;;17.77;14.10;;;0.90;99.90;;;;;;6153536;23;20616;-92
2021/11/09 06:13:51;;;;;;;17.33;14.27;;;0.80;99.90;;;;;;6153622;23;20607;-91
2021/11/09 06:16:18;;;;;;;16.57;14.23;;;0.80;99.90;;;;;;6151727;23;20615;-91
2021/11/09 06:18:45;;;;;;;19.53;15.30;;;0.80;99.90;;;;;;6151529;23;21133;-91
2021/11/09 06:21:12;;;;;;;16.30;14.57;;;1.00;99.90;;;;;;6153021;23;20594;-91
2021/11/09 06:23:39;;;;;;;20.10;14.97;;;1.00;99.90;;;;;;6152788;23;20592;-92
2021/11/09 06:26:08;;;;;;;18.00;14.97;;;0.90;99.90;;;;;;6153484;23;20573;-91
2021/11/09 06:28:36;;;;;;;16.67;14.93;;;0.80;99.90;;;;;;6153913;23;20564;-92
2021/11/09 06:31:04;;;;;;;17.10;14.67;;;0.70;99.90;;;;;;6153876;23;21156;-92
2021/11/09 06:33:32;;;;;;;18.23;14.97;;;0.80;99.90;;;;;;6152276;23;20998;-92
2021/11/09 06:38:40;;;;;;;16.40;14.70;;;0.90;99.90;;;;;;6160897;23;20611;-91
2021/11/09 06:41:13;;;;;;;16.10;14.40;;;1.00;99.90;;;;;;6167169;23;21176;-93
2021/11/09 06:49:17;;;;;;;13.67;12.33;;;1.00;99.90;;;;;;6163078;23;20595;-93
2021/11/09 06:51:45;;;;;;;13.80;11.90;;;1.10;99.90;;;;;;6159492;23;20578;-94
2021/11/09 06:54:13;;;;;;;13.30;11.90;;;1.10;99.90;;;;;;6155676;23;20595;-93
2021/11/09 06:56:55;;;;;;;16.23;13.00;;;1.20;99.90;;;;;;6154968;23;20616;-92
2021/11/09 06:59:22;;;;;;;19.90;13.90;;;1.20;99.90;;;;;;6160442;23;20980;-92
2021/11/09 07:01:51;;;;;;;17.63;15.93;;;1.10;99.90;;;;;;6157802;23;20580;-92
2021/11/09 07:04:22;;;;;;;15.80;14.40;;;1.20;99.90;;;;;;6156232;23;20581;-92
2021/11/09 07:06:48;;;;;;;15.53;13.87;;;1.30;99.90;;;;;;6165146;23;20622;-92
2021/11/09 07:09:16;;;;;;;19.23;15.60;;;1.60;99.90;;;;;;6168326;23;20615;-92
2021/11/09 07:11:44;;;;;;;17.00;14.43;;;2.50;99.90;;;;;;6164681;23;20647;-92
2021/11/09 07:14:12;;;;;;;17.40;14.13;;;1.70;99.90;;;;;;6162207;23;20589;-92
2021/11/09 07:16:41;;;;;;;15.33;13.87;;;1.60;99.90;;;;;;6160743;23;20604;-92
2021/11/09 07:19:09;;;;;;;17.47;15.60;;;1.70;99.90;;;;;;6153693;23;20580;-92
2021/11/09 07:21:36;;;;;;;18.40;15.23;;;1.80;99.90;;;;;;6153326;23;20616;-93
2021/11/09 07:24:03;;;;;;;18.07;16.20;;;1.80;99.90;;;;;;6152731;23;20607;-92
2021/11/09 07:26:30;;;;;;;20.67;17.83;;;1.80;99.90;;;;;;6151704;23;20588;-93
2021/11/09 07:28:59;;;;;;;16.67;14.87;;;1.80;99.90;;;;;;6151939;23;20591;-93
2021/11/09 07:31:29;;;;;;;16.77;15.17;;;1.80;99.90;;;;;;6154413;23;20939;-93
2021/11/09 07:33:58;;;;;;;16.70;15.10;;;2.00;99.90;;;;;;6155223;23;20633;-93
2021/11/09 07:36:26;;;;;;;20.27;17.00;;;1.90;99.90;;;;;;6169281;23;20601;-93
2021/11/09 07:38:53;;;;;;;18.53;16.63;;;1.70;99.90;;;;;;6168971;23;20967;-92
2021/11/09 07:41:20;;;;;;;19.17;15.63;;;2.10;99.90;;;;;;6155455;23;20689;-92
2021/11/09 07:43:47;;;;;;;17.47;15.77;;;2.20;99.90;;;;;;6154829;23;20596;-92
2021/11/09 07:46:19;;;;;;;20.20;18.10;;;2.30;99.90;;;;;;6153868;23;20549;-93
2021/11/09 07:48:48;;;;;;;24.23;20.43;;;2.50;99.90;;;;;;6155557;23;20671;-91
2021/11/09 07:51:15;;;;;;;21.80;19.63;;;2.10;99.90;;;;;;6155049;23;20600;-92
2021/11/09 07:53:43;;;;;;;21.63;19.00;;;2.10;99.90;;;;;;6153546;23;20588;-90
2021/11/09 07:56:16;;;;;;;24.77;22.27;;;2.00;99.90;;;;;;6158931;23;20625;-91
2021/11/09 07:58:51;;;;;;;20.87;18.80;;;4.10;99.90;;;;;;6156147;23;20621;-93
2021/11/09 08:01:27;;;;;;;22.20;19.87;;;4.10;99.90;;;;;;6160233;23;20687;-92
2021/11/09 08:04:03;;;;;;;20.93;18.93;;;2.50;99.90;;;;;;6155053;23;20683;-92
2021/11/09 08:06:43;;;;;;;18.93;17.20;;;2.60;99.90;;;;;;6151556;23;21027;-92
2021/11/09 08:09:12;;;;;;;21.93;19.83;;;2.80;99.90;;;;;;6150934;23;20619;-92
2021/11/09 08:11:42;;;;;;;22.97;20.87;;;2.30;99.90;;;;;;6150746;23;20600;-92
2021/11/09 08:14:09;;;;;;;21.93;19.93;;;2.30;99.90;;;;;;6151596;23;20618;-93
2021/11/09 08:16:38;;;;;;;19.83;17.90;;;3.70;99.90;;;;;;6150763;23;20632;-92
2021/11/09 08:19:05;;;;;;;24.00;21.03;;;4.20;99.90;;;;;;6152505;23;20951;-92
2021/11/09 08:21:33;;;;;;;24.67;18.67;;;4.90;99.90;;;;;;6151326;23;20595;-92
2021/11/09 08:24:01;;;;;;;22.00;19.90;;;3.10;99.90;;;;;;6149619;23;20528;-92
2021/11/09 08:26:28;;;;;;;20.20;18.40;;;3.30;99.90;;;;;;6152263;23;20611;-92
2021/11/09 08:28:57;;;;;;;21.13;19.20;;;3.10;99.90;;;;;;6157043;23;20634;-92
2021/11/09 08:31:25;;;;;;;19.60;17.50;;;4.70;99.90;;;;;;6149122;23;20607;-92
2021/11/09 08:33:55;;;;;;;19.83;17.97;;;3.50;99.90;;;;;;6151029;23;20610;-92
2021/11/09 08:36:27;;;;;;;18.17;16.47;;;5.50;99.90;;;;;;6148930;23;20622;-93
2021/11/09 08:38:54;;;;;;;18.40;16.80;;;3.70;99.90;;;;;;6150629;23;20603;-93
2021/11/09 08:41:26;;;;;;;18.30;16.70;;;3.50;99.90;;;;;;6150499;23;20579;-92
2021/11/09 08:44:02;;;;;;;18.53;16.83;;;3.90;99.90;;;;;;6152078;23;20611;-94
2021/11/09 08:46:31;;;;;;;18.23;16.40;;;4.20;99.90;;;;;;6153246;23;20562;-93
2021/11/09 08:49:00;;;;;;;20.33;18.40;;;4.50;99.90;;;;;;6149090;23;20603;-93
2021/11/09 08:51:27;;;;;;;20.40;18.60;;;;;;;;;;6157125;23;21170;-93
2021/11/09 08:53:58;;;;;;;20.80;19.00;;;4.70;99.90;;;;;;6152806;23;20608;-93
2021/11/09 09:04:30;;;;;;;18.60;17.00;;;5.60;99.90;;;;;;6152401;23;20516;-91
2021/11/09 09:07:02;;;;;;;20.10;18.20;;;5.60;99.90;;;;;;6151374;23;20583;-91
2021/11/09 09:09:28;;;;;;;18.60;16.73;;;5.90;99.90;;;;;;6154758;23;20620;-93
2021/11/09 09:11:56;;;;;;;18.90;17.10;;;;;;;;;;6150008;23;20612;-94
2021/11/09 09:14:30;;;;;;;17.67;16.17;;;6.40;99.90;;;;;;6156916;23;20626;-96
2021/11/09 09:17:02;;;;;;;16.93;15.50;;;8.20;99.90;;;;;;6153930;23;20601;-94
2021/11/09 09:19:35;;;;;;;17.67;15.90;;;6.90;99.90;;;;;;6155472;23;20616;-95
2021/11/09 09:52:34;;;;;;;15.50;13.20;;;9.50;99.90;;;;;;6198757;23;20511;-95
2021/11/09 09:55:51;;;;;;;16.07;12.63;;;10.20;99.90;;;;;;6207354;23;20659;-96
2021/11/09 09:58:26;;;;;;;13.70;11.43;;;9.60;99.90;;;;;;6192136;23;21156;-95
2021/11/09 10:01:10;;;;;;;15.17;12.13;;;10.20;99.90;;;;;;6194091;23;20610;-95
2021/11/09 10:03:51;;;;;;;13.60;11.30;;;10.40;99.90;;;;;;6201050;23;20634;-96
2021/11/09 10:06:21;;;;;;;11.57;10.03;;;10.40;99.90;;;;;;6193895;23;20576;-96
2021/11/09 10:08:53;;;;;;;13.73;7.73;;;10.80;99.90;;;;;;6189193;23;20646;-95
2021/11/09 10:14:35;;;;;;;10.00;4.67;;;11.60;99.90;;;;;;6184194;23;20590;-94
2021/11/09 10:17:10;;;;;;;11.20;6.23;;;11.40;99.90;;;;;;6187075;23;20666;-95
2021/11/09 10:19:43;;;;;;;7.10;3.00;;;11.90;99.90;;;;;;6186758;23;21175;-95
2021/11/09 10:22:26;;;;;;;6.63;3.43;;;12.50;99.90;;;;;;6188480;23;20614;-95
2021/11/09 10:25:01;;;;;;;5.30;3.83;;;11.80;99.90;;;;;;6188611;23;20583;-96
2021/11/09 10:27:31;;;;;;;4.00;2.80;;;12.60;99.90;;;;;;6188385;23;20643;-95
2021/11/09 10:30:08;;;;;;;14.10;3.20;;;14.00;99.90;;;;;;6184931;23;20607;-94
2021/11/09 10:32:59;;;;;;;7.53;3.23;;;12.70;99.90;;;;;;6194765;23;20583;-96
2021/11/09 15:33:51;;;;;;;3.67;2.20;;;10.90;98.40;;;;;;6169838;23;20659;-96
2021/11/09 15:39:14;;;;;;;7.07;2.13;;;10.50;99.90;;;;;;6167768;23;20592;-96
2021/11/09 15:41:45;;;;;;;3.13;2.40;;;10.20;99.90;;;;;;6172562;23;20612;-96
2021/11/09 15:44:39;;;;;;;4.70;2.53;;;10.00;99.90;;;;;;6171320;23;20580;-96
2021/11/09 15:47:11;;;;;;;3.10;2.50;;;10.00;99.90;;;;;;6161287;23;20612;-96
2021/11/09 15:49:53;;;;;;;7.13;2.50;;;9.70;99.90;;;;;;6162972;23;20660;-96
2021/11/09 15:52:23;;;;;;;4.40;2.47;;;9.70;99.90;;;;;;6141823;23;20573;-96
2021/11/09 15:55:22;;;;;;;5.70;3.77;;;9.60;99.90;;;;;;6140912;23;20578;-96
2021/11/09 15:58:03;;;;;;;6.83;2.80;;;9.40;99.90;;;;;;6137643;23;20681;-96
2021/11/09 16:06:20;;;;;;;2.97;1.80;;;;;;;;;;6139472;23;20573;-96
2021/11/09 16:08:50;;;;;;;5.00;2.87;;;9.30;99.90;;;;;;6133961;23;20612;-96
2021/11/09 16:11:20;;;;;;;4.37;2.10;;;;;;;;;;6132307;23;21158;-96
2021/11/09 16:13:51;;;;;;;7.70;3.50;;;8.40;99.90;;;;;;6134246;23;20684;-96
2021/11/09 16:16:26;;;;;;;3.60;2.60;;;8.50;99.90;;;;;;6133500;23;20622;-96
2021/11/09 16:22:25;;;;;;;4.10;3.30;;;8.80;99.90;;;;;;6139540;23;20572;-95
2021/11/09 16:24:54;;;;;;;6.60;3.17;;;8.10;99.90;;;;;;6137442;23;20648;-95
2021/11/09 16:27:26;;;;;;;4.90;3.23;;;7.80;99.90;;;;;;6137858;23;20684;-96
2021/11/09 16:30:39;;;;;;;4.80;3.07;;;7.90;99.90;;;;;;6139681;23;20581;-96
2021/11/09 16:33:15;;;;;;;3.87;2.93;;;7.20;99.90;;;;;;6134773;23;20605;-94
2021/11/09 16:36:00;;;;;;;5.70;4.30;;;7.80;99.90;;;;;;6141986;23;20623;-96
2021/11/09 16:38:33;;;;;;;3.10;2.63;;;7.80;99.90;;;;;;6137407;23;20577;-95
2021/11/09 16:41:38;;;;;;;2.97;2.60;;;7.70;99.90;;;;;;6137581;23;20617;-96
2021/11/09 16:47:00;;;;;;;3.53;3.20;;;7.40;99.90;;;;;;6149724;23;20570;-94
2021/11/09 16:52:24;;;;;;;5.80;3.10;;;;;;;;;;6144698;23;20612;-96
2021/11/09 16:55:01;;;;;;;3.70;2.80;;;;;;;;;;6136194;23;20616;-96
2021/11/09 17:00:51;;;;;;;5.90;3.70;;;7.30;99.90;;;;;;6145971;23;20669;-96
2021/11/09 18:20:07;;;;;;;6.13;4.60;;;;;;;;;;6048565;23;20964;-95
2021/11/09 18:22:56;;;;;;;5.17;4.40;;;6.80;99.90;;;;;;6050346;23;20587;-95
2021/11/09 18:25:29;;;;;;;5.40;4.50;;;8.30;99.90;;;;;;6089204;23;20594;-95
2021/11/09 18:28:04;;;;;;;7.00;5.20;;;9.80;99.90;;;;;;6109102;23;20616;-95
2021/11/09 18:30:53;;;;;;;5.80;4.90;;;6.70;99.90;;;;;;6114005;23;20614;-94
2021/11/09 18:33:51;;;;;;;5.53;4.00;;;6.50;99.90;;;;;;6112680;23;20600;-95
2021/11/09 18:47:50;;;;;;;9.13;8.00;;;6.20;99.90;;;;;;6115522;23;20611;-96
2021/11/09 18:53:30;;;;;;;10.53;6.97;;;6.50;99.90;;;;;;6117211;23;20592;-96
2021/11/09 18:56:09;;;;;;;6.83;6.07;;;6.30;99.90;;;;;;6119782;23;20590;-95
2021/11/09 18:58:38;;;;;;;5.40;5.00;;;6.40;99.90;;;;;;6115152;23;20605;-95
2021/11/09 19:11:06;;;;;;;8.40;5.07;;;5.70;99.90;;;;;;6117061;23;20610;-96
2021/11/09 19:13:35;;;;;;;6.90;5.53;;;;;;;;;;6113506;23;20597;-94
2021/11/09 19:16:06;;;;;;;7.83;6.00;;;5.50;99.90;;;;;;6114420;23;20582;-95
2021/11/09 19:21:25;;;;;;;8.77;5.93;;;;;;;;;;6108689;23;20673;-95
2021/11/09 19:23:55;;;;;;;5.87;5.20;;;5.40;99.90;;;;;;6082207;23;20893;-93
2021/11/09 19:26:43;;;;;;;11.97;10.77;;;5.20;99.90;;;;;;6108174;23;20582;-94
2021/11/09 19:29:15;;;;;;;15.27;13.73;;;5.20;99.90;;;;;;6109606;23;20629;-94
2021/11/09 19:31:49;;;;;;;9.17;7.67;;;5.70;99.90;;;;;;6109011;23;20645;-96
2021/11/09 19:34:30;;;;;;;8.23;6.27;;;6.10;99.90;;;;;;6117944;23;20597;-96
2021/11/09 19:45:57;;;;;;;5.13;4.73;;;4.80;99.90;;;;;;6181665;23;20668;-96
2021/11/09 19:57:50;;;;;;;7.20;6.50;;;7.00;99.90;;;;;;6175108;23;20581;-95
2021/11/09 20:03:28;;;;;;;7.17;6.57;;;4.70;99.90;;;;;;6172004;23;20612;-95
2021/11/09 20:08:44;;;;;;;7.50;6.07;;;7.00;99.90;;;;;;6139889;23;20619;-95
2021/11/09 20:15:03;;;;;;;11.17;10.00;;;4.70;99.90;;;;;;6174382;23;20591;-96
2021/11/09 20:27:53;;;;;;;12.17;10.73;;;4.70;99.90;;;;;;6173031;23;20583;-95
2021/11/09 20:33:43;;;;;;;18.07;15.60;;;4.90;99.90;;;;;;6172022;23;20595;-96
2021/11/09 20:36:15;;;;;;;12.07;10.97;;;4.60;99.90;;;;;;6163213;23;20586;-96
2021/11/09 20:38:43;;;;;;;11.13;10.03;;;;;;;;;;6168826;23;20584;-95
2021/11/09 20:41:22;;;;;;;7.77;6.97;;;4.80;99.90;;;;;;6177485;23;20593;-94
2021/11/09 20:43:54;;;;;;;8.70;7.90;;;4.50;99.90;;;;;;6150112;23;20644;-95
2021/11/09 21:01:31;;;;;;;9.50;7.33;;;;;;;;;;6144277;23;20578;-95
2021/11/09 21:04:01;;;;;;;8.60;7.00;;;6.80;99.90;;;;;;6130009;23;20635;-96
2021/11/09 21:10:03;;;;;;;8.50;7.57;;;4.00;99.90;;;;;;6141982;23;20636;-95
2021/11/09 21:24:16;;;;;;;11.07;8.20;;;;;;;;;;6140341;23;20596;-96
2021/11/09 21:30:31;;;;;;;9.90;7.80;;;4.00;99.90;;;;;;6144420;23;20629;-96
2021/11/09 21:45:18;;;;;;;13.97;12.27;;;4.20;99.90;;;;;;6132085;23;20580;-96
2021/11/09 22:05:41;;;;;;;9.27;8.30;;;4.50;99.90;;;;;;6140773;23;20613;-95
2021/11/09 22:08:11;;;;;;;8.10;7.23;;;3.60;99.90;;;;;;6136435;23;20652;-96
2021/11/09 22:10:43;;;;;;;8.77;7.77;;;3.30;99.90;;;;;;6143374;23;20589;-95
2021/11/09 22:13:19;;;;;;;8.97;8.17;;;3.40;99.90;;;;;;6133932;23;20619;-94
2021/11/09 22:15:48;;;;;;;8.63;7.93;;;3.60;99.90;;;;;;6133495;23;20580;-96
2021/11/09 22:18:24;;;;;;;8.90;7.67;;;5.50;99.90;;;;;;6147562;23;20581;-94
2021/11/09 22:21:02;;;;;;;8.10;7.30;;;3.50;99.90;;;;;;6151500;23;20580;-95
2021/11/09 22:23:33;;;;;;;9.07;8.27;;;5.10;99.90;;;;;;6149847;23;20619;-95
2021/11/09 22:26:01;;;;;;;10.73;8.30;;;;;;;;;;6150999;23;20659;-95
2021/11/09 22:28:29;;;;;;;10.07;9.10;;;3.80;99.90;;;;;;6149345;23;20607;-95
2021/11/09 22:30:56;;;;;;;12.30;8.47;;;5.40;99.90;;;;;;6151980;23;20561;-94
2021/11/09 22:33:24;;;;;;;11.33;8.10;;;3.00;99.90;;;;;;6149764;23;20618;-95
2021/11/09 22:35:54;;;;;;;10.67;9.67;;;2.90;99.90;;;;;;6150759;23;20647;-95
2021/11/09 22:38:28;;;;;;;10.77;9.70;;;3.80;99.90;;;;;;6151349;23;20584;-94
2021/11/09 22:40:56;;;;;;;10.90;9.80;;;5.80;99.90;;;;;;6150920;23;20597;-95
2021/11/09 22:43:32;;;;;;;11.33;9.30;;;4.80;99.90;;;;;;6150588;23;20637;-94
2021/11/09 22:46:00;;;;;;;8.33;7.53;;;3.40;99.90;;;;;;6150328;23;20591;-95
2021/11/09 22:48:31;;;;;;;12.43;9.77;;;3.30;99.90;;;;;;6150701;23;20614;-96
2021/11/09 22:51:01;;;;;;;12.00;9.80;;;4.10;99.90;;;;;;6151389;23;20583;-94
2021/11/09 22:53:35;;;;;;;11.53;10.53;;;3.40;99.90;;;;;;6150645;23;20596;-94
2021/11/09 22:56:03;;;;;;;11.30;10.00;;;3.10;99.90;;;;;;6147790;23;20637;-94
2021/11/09 22:58:30;;;;;;;11.63;10.43;;;4.50;99.90;;;;;;6150283;23;20583;-94
2021/11/09 23:00:58;;;;;;;12.30;11.20;;;2.90;99.90;;;;;;6150982;23;20606;-95
2021/11/09 23:03:25;;;;;;;12.40;10.20;;;3.00;99.90;;;;;;6151186;23;20575;-95
2021/11/09 23:05:56;;;;;;;12.27;9.57;;;2.60;99.90;;;;;;6151864;23;20571;-94
2021/11/09 23:08:23;;;;;;;12.47;10.27;;;4.10;99.90;;;;;;6150963;23;20577;-94
2021/11/09 23:10:53;;;;;;;12.87;11.63;;;2.80;99.90;;;;;;6151357;23;20640;-94
2021/11/09 23:13:25;;;;;;;15.17;13.87;;;4.60;99.90;;;;;;6151573;23;20559;-95
2021/11/09 23:15:52;;;;;;;14.43;12.50;;;2.90;99.90;;;;;;6151884;23;20564;-94
2021/11/09 23:18:22;;;;;;;13.83;12.40;;;3.10;99.90;;;;;;6149171;23;20620;-94
2021/11/09 23:20:50;;;;;;;13.20;11.73;;;3.70;99.90;;;;;;6150377;23;20608;-95
2021/11/09 23:23:21;;;;;;;12.67;11.30;;;3.40;99.90;;;;;;6150232;23;20568;-94
2021/11/09 23:25:48;;;;;;;12.13;11.03;;;2.80;99.90;;;;;;6151168;23;20565;-95
2021/11/09 23:28:16;;;;;;;12.13;10.90;;;2.70;99.90;;;;;;6149339;23;20600;-94
2021/11/09 23:30:48;;;;;;;11.90;10.80;;;2.90;99.90;;;;;;6150522;23;20635;-95
2021/11/09 23:33:17;;;;;;;14.33;11.23;;;3.60;99.90;;;;;;6150652;23;20568;-95
2021/11/09 23:35:45;;;;;;;11.40;10.30;;;2.90;99.90;;;;;;6149890;23;20561;-94
2021/11/09 23:38:15;;;;;;;11.47;10.47;;;3.00;99.90;;;;;;6147032;23;20570;-95
2021/11/09 23:40:47;;;;;;;11.00;8.93;;;2.80;99.90;;;;;;6148254;23;20626;-95
2021/11/09 23:43:14;;;;;;;13.23;11.83;;;2.20;99.90;;;;;;6149877;23;20586;-95
2021/11/09 23:45:44;;;;;;;13.47;12.10;;;4.40;99.90;;;;;;6147914;23;20562;-95
2021/11/09 23:48:12;;;;;;;11.70;10.60;;;3.70;99.90;;;;;;6149598;23;20570;-95
2021/11/09 23:50:40;;;;;;;14.70;12.83;;;4.20;99.90;;;;;;6148955;23;20622;-95
2021/11/09 23:53:14;;;;;;;14.83;10.47;;;2.90;99.90;;;;;;6149553;23;20670;-94
2021/11/09 23:55:44;;;;;;;13.90;12.67;;;2.70;99.90;;;;;;6150919;23;20587;-95